Flight Track Log - Related Links

Times and Time Zones

All times are in EDT time to prevent confusion due to time zone crossing. See the SKW5516 flight status page for this flight to view local times or setup timezone preferences in your user account.

Time Position Orientation Groundspeed Altitude Reporting Facility
EDT Latitude Longitude Course Direction KTS MPH feet Rate Location/Type
Fri 08:51:59 AM 38.9167 -77.4333 229° Southwest 177 204 1,200  Level Potomac TRACON
Fri 08:52:54 AM 38.8833 -77.4833 229° Southwest 210 242 2,800 1,947 Climbing Potomac TRACON
Fri 08:54:30 AM 38.8011 -77.5733 220° Southwest 235 270 6,100 2,231 Climbing Washington Center
Fri 08:55:30 AM 38.7706 -77.6631 246° West 255 293 8,600 1,983 Climbing Washington Center
Fri 08:56:28 AM 38.7669 -77.7508 267° West 271 312 10,000 1,068 Climbing Washington Center
Fri 08:57:28 AM 38.7753 -77.8603 276° West 277 319 10,700 1,190 Climbing Washington Center
Fri 08:58:29 AM 38.7958 -77.9783 283° West 313 360 12,400 1,672 Climbing Washington Center
Fri 08:59:30 AM 38.8269 -78.0964 289° West 336 387 14,100 1,714 Climbing Washington Center
Fri 09:00:28 AM 38.8533 -78.2228 285° West 357 411 15,800 1,450 Climbing Washington Center
Fri 09:01:30 AM 38.8525 -78.3558 270° West 369 425 17,000 600 Climbing Washington Center
Fri 09:02:28 AM 38.8511 -78.4972 269° West 381 438 17,000 661 Level Washington Center
Fri 09:03:28 AM 38.8497 -78.6383 269° West 400 460 18,300 1,388 Climbing Washington Center
Fri 09:04:29 AM 38.8481 -78.7822 269° West 405 466 19,800 1,041 Climbing Washington Center
Fri 09:05:29 AM 38.8464 -78.9208 269° West 400 460 20,400 1,091 Climbing Washington Center
Fri 09:06:30 AM 38.8447 -79.0594 269° West 400 460 22,000 1,311 Climbing Washington Center
Fri 09:07:28 AM 38.8428 -79.1978 269° West 400 460 23,000 857 Climbing Washington Center
Fri 09:08:29 AM 38.8175 -79.3353 257° West 400 460 23,700 706 Climbing Washington Center
Fri 09:09:27 AM 38.7942 -79.4806 258° West 410 472 24,400 706 Climbing Washington Center
Fri 09:10:28 AM 38.7617 -79.6439 256° West 431 496 25,100 639 Climbing Washington Center
Fri 09:11:29 AM 38.7383 -79.7811 258° West 431 496 25,700 681 Climbing Washington Center
Fri 09:12:49 AM 38.6994 -79.9725 255° West 435 501 26,700 851 Climbing Indianapolis Center
Fri 09:13:50 AM 38.6714 -80.1236 257° West 437 503 27,700 976 Climbing Indianapolis Center
Fri 09:14:52 AM 38.6433 -80.2719 256° West 431 496 28,700 919 Climbing Indianapolis Center
Fri 09:15:54 AM 38.6094 -80.4497 256° West 428 493 29,600 732 Climbing Indianapolis Center
Fri 09:16:55 AM 38.5806 -80.5978 256° West 430 495 30,200 780 Climbing Indianapolis Center
Fri 09:17:57 AM 38.5522 -80.7475 256° West 431 496 31,200 1,065 Climbing Indianapolis Center
Fri 09:18:59 AM 38.5244 -80.8944 256° West 424 488 32,400 871 Climbing Indianapolis Center
Fri 09:20:01 AM 38.4956 -81.0386 256° West 419 482 33,000 293 Climbing Indianapolis Center
Fri 09:21:02 AM 38.4664 -81.1878 256° West 427 491 33,000 49 Level Indianapolis Center
Fri 09:22:04 AM 38.4353 -81.3403 255° West 437 503 33,100 726 Climbing Indianapolis Center
Fri 09:23:06 AM 38.4056 -81.4911 256° West 434 499 34,500 1,258 Climbing Indianapolis Center
Fri 09:24:08 AM 38.3775 -81.6344 256° West 416 479 35,700 732 Climbing Indianapolis Center
Fri 09:25:09 AM 38.3486 -81.7736 255° West 405 466 36,000 146 Climbing Indianapolis Center
Fri 09:26:11 AM 38.3003 -81.9428 250° West 420 483 36,000 435 Level Indianapolis Center
Fri 09:27:13 AM 38.2811 -82.0944 261° West 437 503 36,900 968 Climbing Indianapolis Center
Fri 09:28:15 AM 38.2578 -82.2358 258° West 418 481 38,000 532 Climbing Indianapolis Center
Fri 09:29:17 AM 38.2092 -82.3633 244° Southwest 399 459 38,000  Level Indianapolis Center
Fri 09:30:19 AM 38.1611 -82.4933 245° Southwest 406 467 38,000  Level Indianapolis Center
Fri 09:31:20 AM 38.1119 -82.6258 245° Southwest 415 478 38,000  Level Indianapolis Center
Fri 09:32:22 AM 38.0528 -82.7825 244° Southwest 422 486 38,000  Level Indianapolis Center
Fri 09:33:25 AM 38.0017 -82.9192 245° Southwest 428 493 38,000  Level Indianapolis Center
Fri 09:35:28 AM 37.8997 -83.1889 244° Southwest 424 488 38,000  Level Indianapolis Center
Fri 09:36:30 AM 37.8511 -83.3200 245° Southwest 416 479 38,000  Level Indianapolis Center
Fri 09:37:32 AM 37.7931 -83.4708 244° Southwest 409 471 38,000  Level Indianapolis Center
Fri 09:38:34 AM 37.7433 -83.5997 244° Southwest 409 471 38,000  Level Indianapolis Center
Fri 09:39:36 AM 37.6933 -83.7275 244° Southwest 408 470 38,000  Level Indianapolis Center
Fri 09:40:37 AM 37.6425 -83.8575 244° Southwest 412 474 38,000  Level Indianapolis Center
Fri 09:41:39 AM 37.5928 -83.9858 244° Southwest 408 470 38,000  Level Indianapolis Center
Fri 09:42:41 AM 37.5419 -84.1144 244° Southwest 411 473 38,000  Level Indianapolis Center
Fri 09:43:43 AM 37.4836 -84.2633 244° Southwest 407 468 38,000  Level Indianapolis Center
Fri 09:44:45 AM 37.4319 -84.3925 243° Southwest 411 473 38,000  Level Indianapolis Center
Fri 09:45:47 AM 37.3817 -84.5206 244° Southwest 410 472 38,000  Level Indianapolis Center
Fri 09:46:49 AM 37.3300 -84.6494 243° Southwest 409 471 38,000  Level Indianapolis Center
Fri 09:47:51 AM 37.2794 -84.7764 243° Southwest 407 468 38,000  Level Indianapolis Center
Fri 09:48:53 AM 37.2194 -84.9247 243° Southwest 408 470 38,000  Level Indianapolis Center
Fri 09:49:55 AM 37.1686 -85.0514 243° Southwest 408 470 38,000  Level Indianapolis Center
Fri 09:50:57 AM 37.1153 -85.1797 243° Southwest 412 474 38,000  Level Indianapolis Center
Fri 09:51:59 AM 37.0642 -85.3072 243° Southwest 409 471 38,000  Level Indianapolis Center
Fri 09:53:01 AM 37.0139 -85.4319 243° Southwest 406 467 38,000  Level Indianapolis Center
Fri 09:54:03 AM 36.9586 -85.5650 243° Southwest 409 471 38,000  Level Indianapolis Center
Fri 09:55:05 AM 36.9056 -85.6925 243° Southwest 409 471 38,000  Level Indianapolis Center
Fri 09:56:07 AM 36.8536 -85.8200 243° Southwest 407 468 38,000  Level Indianapolis Center
Fri 09:57:09 AM 36.7919 -85.9667 242° Southwest 406 467 38,000  Level Indianapolis Center
Fri 09:58:11 AM 36.7400 -86.0922 243° Southwest 405 466 38,000  Level Indianapolis Center
Fri 09:58:56 AM 36.7050 -86.1747 242° Southwest 420 483 38,000  Level Memphis Center
Fri 09:59:56 AM 36.6550 -86.2989 243° Southwest 414 476 38,000  Level Memphis Center
Fri 10:00:56 AM 36.6006 -86.4231 241° Southwest 409 471 38,000  Level Memphis Center
Fri 10:01:56 AM 36.5464 -86.5547 243° Southwest 404 465 38,000  Level Memphis Center
Fri 10:02:56 AM 36.4939 -86.6786 242° Southwest 404 465 38,000  Level Memphis Center
Fri 10:03:56 AM 36.4411 -86.8050 243° Southwest 399 459 38,000  Level Memphis Center
Fri 10:04:56 AM 36.4003 -86.9097 244° Southwest 406 467 38,000  Level Memphis Center
Fri 10:05:56 AM 36.3375 -87.0517 241° Southwest 422 486 38,000  Level Memphis Center
Fri 10:06:56 AM 36.2844 -87.1697 241° Southwest 413 475 38,000  Level Memphis Center
Fri 10:07:56 AM 36.2292 -87.2928 241° Southwest 408 470 38,000  Level Memphis Center
Fri 10:08:56 AM 36.1719 -87.4258 242° Southwest 408 470 38,000  Level Memphis Center
Fri 10:09:56 AM 36.1183 -87.5511 242° Southwest 403 464 38,000  Level Memphis Center
Fri 10:10:56 AM 36.0669 -87.6711 242° Southwest 408 470 38,000  Level Memphis Center
Fri 10:11:56 AM 36.0131 -87.7908 241° Southwest 402 463 38,000  Level Memphis Center
Fri 10:12:56 AM 35.9594 -87.9156 242° Southwest 402 463 38,000  Level Memphis Center
Fri 10:13:56 AM 35.9053 -88.0350 241° Southwest 402 463 38,000  Level Memphis Center
Fri 10:14:56 AM 35.8511 -88.1494 240° Southwest 397 457 38,000  Level Memphis Center
Fri 10:15:56 AM 35.8050 -88.2556 242° Southwest 391 450 38,000  Level Memphis Center
Fri 10:16:56 AM 35.7506 -88.3719 240° Southwest 391 450 38,000  Level Memphis Center
Fri 10:17:56 AM 35.6983 -88.4908 242° Southwest 398 458 38,000  Level Memphis Center
Fri 10:18:56 AM 35.6436 -88.6072 240° Southwest 398 458 38,000  Level Memphis Center
Fri 10:19:56 AM 35.5889 -88.7256 240° Southwest 398 458 38,000  Level Memphis Center
Fri 10:20:56 AM 35.5364 -88.8517 243° Southwest 398 458 38,000  Level Memphis Center
Fri 10:21:56 AM 35.4856 -88.9700 242° Southwest 389 448 38,000  Level Memphis Center
Fri 10:22:56 AM 35.4367 -89.0728 240° Southwest 389 448 38,000  Level Memphis Center
Fri 10:23:56 AM 35.3856 -89.1881 241° Southwest 396 456 38,000  Level Memphis Center
Fri 10:24:56 AM 35.3325 -89.3033 241° Southwest 396 456 38,000  Level Memphis Center
Fri 10:25:56 AM 35.2769 -89.4211 240° Southwest 396 456 38,000  Level Memphis Center
Fri 10:26:56 AM 35.2236 -89.5386 241° Southwest 396 456 38,000  Level Memphis Center
Fri 10:27:56 AM 35.1703 -89.6586 241° Southwest 401 461 38,000  Level Memphis Center
Fri 10:28:56 AM 35.1167 -89.7808 242° Southwest 406 467 38,000  Level Memphis Center
Fri 10:29:56 AM 35.0608 -89.9031 241° Southwest 406 467 38,000  Level Memphis Center
Fri 10:30:56 AM 34.9986 -90.0225 238° Southwest 422 486 38,000  Level Memphis Center
Fri 10:31:56 AM 34.9300 -90.1317 233° Southwest 422 486 38,000  Level Memphis Center
Fri 10:32:56 AM 34.8592 -90.2406 232° Southwest 415 478 38,000  Level Memphis Center
Fri 10:33:56 AM 34.7925 -90.3494 233° Southwest 415 478 38,000  Level Memphis Center
Fri 10:34:56 AM 34.7256 -90.4583 233° Southwest 415 478 38,000  Level Memphis Center
Fri 10:35:56 AM 34.6503 -90.5742 232° Southwest 415 478 38,000  Level Memphis Center
Fri 10:36:56 AM 34.5856 -90.6800 233° Southwest 406 467 38,000  Level Memphis Center
Fri 10:37:56 AM 34.5183 -90.7856 232° Southwest 406 467 38,000  Level Memphis Center
Fri 10:38:56 AM 34.4511 -90.8936 233° Southwest 406 467 38,000  Level Memphis Center
Fri 10:39:56 AM 34.3839 -90.9989 232° Southwest 406 467 38,000  Level Memphis Center
Fri 10:40:56 AM 34.3167 -91.1067 233° Southwest 406 467 38,000  Level Memphis Center
Fri 10:41:56 AM 34.2511 -91.2114 233° Southwest 406 467 38,000  Level Memphis Center
Fri 10:42:56 AM 34.1817 -91.3189 232° Southwest 406 467 38,000  Level Memphis Center
Fri 10:43:56 AM 34.1161 -91.4233 233° Southwest 411 473 38,000  Level Memphis Center
Fri 10:44:56 AM 34.0461 -91.5303 232° Southwest 406 467 38,000  Level Memphis Center
Fri 10:45:56 AM 33.9847 -91.6272 233° Southwest 406 467 38,000  Level Memphis Center
Fri 10:48:17 AM 33.8297 -91.8706 233° Southwest 403 464 38,000  Level Fort Worth Center
Fri 10:49:17 AM 33.7594 -91.9772 232° Southwest 408 470 38,000  Level Fort Worth Center
Fri 10:50:17 AM 33.6908 -92.0839 232° Southwest 413 475 38,000  Level Fort Worth Center
Fri 10:51:17 AM 33.6203 -92.1931 232° Southwest 413 475 38,000  Level Fort Worth Center
Fri 10:52:17 AM 33.5517 -92.2992 232° Southwest 413 475 38,000  Level Fort Worth Center
Fri 10:53:17 AM 33.4786 -92.4056 231° Southwest 413 475 38,000  Level Fort Worth Center
Fri 10:54:17 AM 33.4119 -92.5114 233° Southwest 413 475 38,000  Level Fort Worth Center
Fri 10:55:17 AM 33.3392 -92.6222 232° Southwest 413 475 38,000  Level Fort Worth Center
Fri 10:56:17 AM 33.2678 -92.7256 230° Southwest 413 475 38,000  Level Fort Worth Center
Fri 10:57:17 AM 33.1814 -92.8169 222° Southwest 407 468 38,000  Level Fort Worth Center
Fri 10:58:17 AM 33.0906 -92.9033 219° Southwest 414 476 38,000  Level Fort Worth Center
Fri 10:59:17 AM 32.9978 -92.9922 219° Southwest 424 488 38,000  Level Fort Worth Center
Fri 11:00:17 AM 32.9069 -93.0783 219° Southwest 424 488 38,000  Level Fort Worth Center
Fri 11:01:17 AM 32.8158 -93.1644 218° Southwest 429 494 38,000  Level Fort Worth Center
Fri 11:02:17 AM 32.7250 -93.2525 219° Southwest 429 494 38,000  Level Fort Worth Center
Fri 11:03:17 AM 32.6317 -93.3383 218° Southwest 429 494 38,000  Level Fort Worth Center
Fri 11:04:17 AM 32.5406 -93.4261 219° Southwest 429 494 38,000  Level Fort Worth Center
Fri 11:05:17 AM 32.4475 -93.5142 219° Southwest 429 494 38,000  Level Fort Worth Center
Fri 11:06:17 AM 32.3542 -93.6042 219° Southwest 435 501 38,000  Level Fort Worth Center
Fri 11:07:17 AM 32.2606 -93.6917 218° Southwest 435 501 38,000  Level Fort Worth Center
Fri 11:08:17 AM 32.1594 -93.7939 221° Southwest 435 501 38,000  Level Fort Worth Center
Fri 11:09:17 AM 32.0658 -93.8808 218° Southwest 435 501 38,000  Level Fort Worth Center
Fri 11:10:17 AM 31.9822 -93.9600 219° Southwest 441 507 38,000  Level Fort Worth Center
Fri 11:11:17 AM 31.8867 -94.0517 219° Southwest 441 507 38,000  Level Fort Worth Center
Fri 11:12:32 AM 31.7600 -94.1647 217° Southwest 430 495 38,000  Level Houston Center
Fri 11:13:34 AM 31.6672 -94.2514 218° Southwest 426 490 38,000  Level Houston Center
Fri 11:14:38 AM 31.5733 -94.3378 218° Southwest 428 493 38,000  Level Houston Center
Fri 11:15:38 AM 31.4800 -94.4242 218° Southwest 428 493 38,000  Level Houston Center
Fri 11:16:40 AM 31.3861 -94.5094 218° Southwest 426 490 38,000  Level Houston Center
Fri 11:17:42 AM 31.2914 -94.5958 218° Southwest 427 491 38,000  Level Houston Center
Fri 11:18:44 AM 31.1886 -94.6936 219° Southwest 445 512 38,000  Level Houston Center
Fri 11:19:47 AM 31.0958 -94.7856 220° Southwest 437 503 38,000  Level Houston Center
Fri 11:20:49 AM 30.9906 -94.9017 223° Southwest 432 497 38,000  Level Houston Center
Fri 11:21:51 AM 30.9011 -94.9983 223° Southwest 436 502 38,000  Level Houston Center
Fri 11:22:53 AM 30.8117 -95.0936 222° Southwest 436 502 38,000  Level Houston Center
Fri 11:23:55 AM 30.7228 -95.1889 223° Southwest 434 499 38,000  Level Houston Center
Fri 11:24:57 AM 30.6333 -95.2842 223° Southwest 437 503 38,000  Level Houston Center
Fri 11:25:59 AM 30.5447 -95.3806 223° Southwest 436 502 38,000  Level Houston Center
Fri 11:27:01 AM 30.4436 -95.4850 222° Southwest 437 503 38,000  Level Houston Center
Fri 11:28:03 AM 30.3542 -95.5814 223° Southwest 441 507 38,000  Level Houston Center
Fri 11:29:06 AM 30.2642 -95.6750 222° Southwest 438 504 38,000  Level Houston Center
Fri 11:30:08 AM 30.1742 -95.7697 222° Southwest 440 506 38,000  Level Houston Center
Fri 11:31:10 AM 30.0664 -95.8836 222° Southwest 441 507 38,000  Level Houston Center
Fri 11:32:12 AM 29.9747 -95.9783 222° Southwest 442 509 38,000  Level Houston Center
Fri 11:33:14 AM 29.9158 -96.1092 243° Southwest 433 498 38,000 -48 Level Houston Center
Fri 11:34:16 AM 29.9100 -96.2431 267° West 423 487 37,900 -48 Descending Houston Center
Fri 11:35:18 AM 29.9097 -96.3772 270° West 422 486 37,900 -919 Level Houston Center
Fri 11:36:20 AM 29.9092 -96.5153 270° West 432 497 36,000 -2,016 Descending Houston Center
Fri 11:37:23 AM 29.9089 -96.6572 270° West 445 512 33,700 -2,544 Descending Houston Center
Fri 11:38:25 AM 29.9075 -96.8331 270° West 463 533 30,700 -2,758 Descending Houston Center
Fri 11:39:27 AM 29.9064 -96.9814 270° West 467 537 28,000 -2,565 Descending Houston Center
Fri 11:40:29 AM 29.9047 -97.1247 269° West 454 522 25,400 -2,565 Descending Houston Center
Fri 11:41:31 AM 29.9042 -97.2694 270° West 455 524 22,700 -2,613 Descending Houston Center
Fri 11:42:33 AM 29.9031 -97.4108 270° West 447 514 20,000 -2,710 Descending Houston Center
Fri 11:43:35 AM 29.9011 -97.5697 269° West 417 480 17,100 -2,690 Descending Houston Center
Fri 11:44:00 AM 29.8992 -97.6278 268° West 398 458 16,100 -2,464 Descending Houston Center
Fri 11:44:31 AM 29.8992 -97.6928 270° West 372 428 14,800 -1,898 Descending Houston Center
Fri 11:45:38 AM 29.8989 -97.8183 270° West 363 418 13,000 -934 Descending Houston Center
Fri 11:46:33 AM 29.8742 -97.9131 253° West 336 387 12,900 -991 Descending Houston Center
Fri 11:47:33 AM 29.8369 -98.0069 245° Southwest 313 360 11,100 -1,670 Descending Houston Center
Fri 11:48:28 AM 29.8025 -98.0858 243° Southwest 301 346 9,700 -1,562 Descending Houston Center
Fri 11:48:46 AM 29.7917 -98.1108 243° Southwest 291 335 9,200 -1,765 Descending Houston Center
Fri 11:49:36 AM 29.7644 -98.1725 243° Southwest 279 321 7,700 -1,745 Descending Houston Center
Fri 11:50:36 AM 29.7286 -98.2611 245° Southwest 280 322 6,000 -843 Descending Houston Center
Fri 11:51:37 AM 29.6994 -98.3297 244° Southwest 236 272 6,000  Level Houston Center
Fri 11:51:52 AM 29.6922 -98.3458 243° Southwest 240 276 6,000  Level Houston Center
Fri 11:52:38 AM 29.6700 -98.3981 244° Southwest 234 269 6,000  Level Houston Center
Fri 11:52:54 AM 29.6611 -98.4186 244° Southwest 237 273 6,000 -1,100 Level Houston Center
Fri 11:53:38 AM 29.6553 -98.4672 262° West 238 274 4,900 -1,548 Descending Houston Center
Fri 11:53:56 AM 29.6658 -98.4867 302° West 239 275 4,400 -885 Descending Houston Center
Fri 11:54:39 AM 29.6892 -98.5378 298° West 230 265 4,000 -381 Descending Houston Center
Fri 11:54:59 AM 29.6911 -98.5561 277° West 224 258 4,000 -393 Level Houston Center
Fri 11:55:40 AM 29.6647 -98.5936 231° Southwest 208 239 3,600 -387 Descending Houston Center
Fri 11:56:01 AM 29.6514 -98.6031 212° Southwest 209 241 3,600 -393 Level Houston Center
Fri 11:56:41 AM 29.6203 -98.5892 159° South 182 209 3,200 -677 Descending Houston Center
Fri 11:57:03 AM 29.6081 -98.5711 128° Southeast 178 205 2,900 -689 Descending Houston Center
Fri 11:57:42 AM 29.5894 -98.5497 135° Southeast 159 183 2,500 -677 Descending Houston Center
Fri 11:58:05 AM 29.5811 -98.5350 123° Southeast 165 190 2,200 -988 Descending Houston Center
Fri 11:59:07 AM 29.5500 -98.4939 131° Southeast 151 174 1,100 -1,065 Descending Houston Center
Fri 12:01:00 PM 29.5340 -98.4691 24° Northeast  Level Estimated
Fri 12:08:00 PM 29.5333 -98.4667 16° North  Level FlightAware Approximate
Fri 12:09:00 PM 29.5340 -98.4691 16° North  Level Estimated

Login

Don't have an account? Register now (free) for customized features, flight alerts, and more!